メインページ
METAR-TAF:

METAR-TAF

空港 :

ニューオーリンズ, ルイジアナ州, アメリカ合衆国

ルイ・アームストロング・ニューオーリンズ国際空港

緯度: 29-59-34N, 経度: 090-15-03W, 海抜: 1m

現時点の気象観測

当レポートは25分前の22:53(UTC)に作成
の風 8kt
気温 29°C
湿度 74%
気圧 1015 hPa
視程: 16.1km
高度3200ftの雲は散在している
高度25000ftの雲は散在している

METAR: KMSY 272253Z 17008KT 10SM SCT032 SCT250 29/24 A2998 RMK AO2 SLP154 T02940239

時間: 18:18 (23:18 UTC)

予報

当レポートは5時間44分前の17:34(UTC)に作成
予報は27日の 18時(UTC)から 28日の 18時(UTC)まで有効
の風 10kt
視程: 10km
高度4000ftの雲は散在している
高度25000ftの千切れ雲あり
27日の 2000時(UTC)から
の風 11kt
視程: 10km
高度4000ftの雲は散在している
高度5000ftの千切れ雲あり
28日の 0500時(UTC)から
南/南西の風 9kt
視程: 10km
高度2500ftの千切れ雲あり
28日の 09時(UTC)から 28日の 13時(UTC)まで一時的に
高度1500ftの千切れ雲あり
28日の 1400時(UTC)から
の風 10kt
視程: 10km
高度1500ftの雲は散在している
高度3500ftの千切れ雲あり

TAF: KMSY 271734Z 2718/2818 19010KT P6SM SCT040 BKN250 FM272000 18011KT P6SM SCT040 BKN050 FM280500 20009KT P6SM BKN025 TEMPO 2809/2813 BKN015 FM281400 18010KT P6SM SCT015 BKN035

4,000以上の空港の気象観測と天気予報(METAR報とTAF報)

利用可能な観測所は地図上に黄色い丸と赤い丸で示す。

丸の上にカーソルを重ねると観測所名を参照できる。

次にクリックすると気象観測と天気予報を参照できる。

マップの切り替え:黒色「×」印の緑ボタンをクリックして拡大、「-」印の緑ボタンをクリックして縮小、緑色の三角印をクリックして隣りの地図に切り替え


METAR-TAF: